Nearby METAR Reports

 

KISP - Islip, New York, USA
Distance from station: SW 4mi, 6km
Updated: Mon, 06/21/2021 6:56 pm EDT
Mostly cloudy
Mostly cloudy
 Wind from S
Wind: S 15 mph , 24 km/h
Temperature: 73°F , 23°C
Dew Point: 72°F , 22°C
Humidity: 94%
Barometer: 29.64 inHg , 1003.7 hPa
Clouds: Mostly cloudy
Visibility: 10 miles , 16 km
Cloud details: Mostly cloudy 800 ft
Mostly cloudy 1100 ft
Mostly cloudy 25000 ft
2021/06/21 22:56 KISP 212256Z 19013KT 10SM BKN008 BKN011 BKN250 23/22 A2964 RMK AO2 SLP035 T02330217
KHWV - Shirley, New York, USA
Distance from station: E 10mi, 16km
Updated: Mon, 06/21/2021 6:56 pm EDT
Partly cloudy
Partly cloudy
 Wind from S
Wind: S 12 mph , 19 km/h
Temperature: 73°F , 23°C
Dew Point: 66°F , 19°C
Humidity: 78%
Barometer: 29.65 inHg , 1004.1 hPa
Clouds: Partly cloudy
Visibility: 10 miles , 16 km
Cloud details: Partly cloudy 700 ft
2021/06/21 22:56 KHWV 212256Z AUTO 19010KT 10SM SCT007 23/19 A2965 RMK AO2 SLP039 T02280194
 
KFRG - Farmingdale, New York, USA
Distance from station: WSW 20mi, 33km
Updated: Mon, 06/21/2021 6:53 pm EDT
Clear
Clear
 Wind from S
Wind: S 16 mph , 26 km/h
Temperature: 75°F , 24°C
Dew Point: 70°F , 21°C
Humidity: 83%
Barometer: 29.62 inHg , 1003 hPa
Clouds: Clear
Visibility: 10 miles , 16 km
2021/06/21 22:53 KFRG 212253Z AUTO 19014KT 10SM CLR 24/21 A2962 RMK AO2 SLP030 T02440206
KBDR - Bridgeport, Connecticut, USA
Distance from station: N 23mi, 37km
Updated: Mon, 06/21/2021 6:52 pm EDT
Clear
Clear
 Wind from S
Wind: S 12 mph , 19 km/h
Temperature: 77°F , 25°C
Dew Point: 70°F , 21°C
Humidity: 79%
Barometer: 29.60 inHg , 1002.4 hPa
Clouds: Clear
Visibility: 10 miles , 16 km
2021/06/21 22:52 KBDR 212252Z 19010KT 10SM CLR 25/21 A2960 RMK AO2 SLP024 T02500206
 
KFOK - Westhampton Beac, New York, USA
Distance from station: E 23mi, 37km
Updated: Mon, 06/21/2021 6:53 pm EDT
Few Clouds
Few Clouds
 Wind from SSW
Wind: SSW 9 mph , 15 km/h
Temperature: 72°F , 22°C
Dew Point: 68°F , 20°C
Humidity: 88%
Barometer: 29.67 inHg , 1004.7 hPa
Clouds: Few Clouds
Visibility: 10 miles , 16 km
Cloud details: Few Clouds 700 ft
2021/06/21 22:53 KFOK 212253Z 21008KT 10SM FEW007 22/20 A2967 RMK AO2 SLP048 T02220200
KHVN - New Haven/Tweed, Connecticut, USA
Distance from station: NNE 31mi, 50km
Updated: Mon, 06/21/2021 6:53 pm EDT
Few Clouds
Few Clouds
 Wind from S
Wind: S 9 mph , 15 km/h
Temperature: 79°F , 26°C
Dew Point: 72°F , 22°C
Humidity: 79%
Barometer: 29.62 inHg , 1003 hPa
Clouds: Few Clouds
Visibility: 7 miles , 11 km
Cloud details: Few Clouds 2000 ft
2021/06/21 22:53 KHVN 212253Z 17008KT 7SM FEW020 26/22 A2962 RMK AO2 SLP029 T02560217
 
KHPN - White Plains, New York, USA
Distance from station: WNW 37mi, 60km
Updated: Mon, 06/21/2021 6:56 pm EDT
Few Clouds
Few Clouds
 Wind from SSE
Wind: SSE 10 mph , 17 km/h
Temperature: 79°F , 26°C
Dew Point: 72°F , 22°C
Humidity: 79%
Barometer: 29.60 inHg , 1002.4 hPa
Clouds: Few Clouds
Visibility: 10 miles , 16 km
Cloud details: Few Clouds 2000 ft
2021/06/21 22:56 KHPN 212256Z 15009KT 10SM FEW020 26/22 A2960 RMK AO2 SLP018 T02610217
KJFK - Nyc/Jfk Arpt, New York, USA
Distance from station: WSW 40mi, 64km
Updated: Mon, 06/21/2021 6:51 pm EDT
Partly cloudy
Partly cloudy
 Wind from S
Wind: S 23 mph , 37 km/h, Gust: 30 mph , 48 km/h
Temperature: 75°F , 24°C
Dew Point: 70°F , 21°C
Humidity: 83%
Barometer: 29.61 inHg , 1002.7 hPa
Clouds: Partly cloudy
Visibility: 10 miles , 16 km
Cloud details: Few Clouds 4500 ft
Partly cloudy 25000 ft
2021/06/21 22:51 KJFK 212251Z 18020G26KT 10SM FEW045 SCT250 24/21 A2961 RMK AO2 PK WND 17027/2208 SLP027 T02390206
 
KDXR - Danbury, Connecticut, USA
Distance from station: NNW 42mi, 68km
Updated: Mon, 06/21/2021 6:53 pm EDT
Clear
Clear
 Wind from S
Wind: S 10 mph , 17 km/h, Gust: 21 mph , 33 km/h
Temperature: 81°F , 27°C
Heat Index: 85°F , 29°C
Dew Point: 72°F , 22°C
Humidity: 74%
Barometer: 29.61 inHg , 1002.7 hPa
Clouds: Clear
Visibility: 10 miles , 16 km
2021/06/21 22:53 KDXR 212253Z 18009G18KT 10SM CLR 27/22 A2961 RMK AO2 SLP020 T02720217
KHTO - East Hampton, New York, USA
Distance from station: E 43mi, 69km
Updated: Mon, 06/21/2021 6:55 pm EDT
Overcast
Overcast
 Wind from SSW
Wind: SSW 10 mph , 17 km/h
Temperature: 70°F , 21°C
Dew Point: 68°F , 20°C
Humidity: 94%
Barometer: 29.65 inHg , 1004.1 hPa
Clouds: Overcast
Visibility: 7 miles , 11 km
Cloud details: Overcast 500 ft
2021/06/21 22:55 KHTO 212255Z AUTO 20009KT 7SM OVC005 21/20 A2965 RMK AO2 T02080197
 
KOXC - Oxford/Waterbury, Connecticut, USA
Distance from station: N 43mi, 70km
Updated: Mon, 06/21/2021 6:51 pm EDT
Few Clouds
Few Clouds
 Wind from S
Wind: S 12 mph , 19 km/h
Temperature: 77°F , 25°C
Dew Point: 75°F , 24°C
Humidity: 94%
Barometer: 29.63 inHg , 1003.4 hPa
Clouds: Few Clouds
Visibility: 10 miles , 16 km
Cloud details: Few Clouds 1500 ft
2021/06/21 22:51 KOXC 212251Z 18010KT 10SM FEW015 25/24 A2963 RMK AO2 SLP040 T02500239
KLGA - Nyc/La Guardia, New York, USA
Distance from station: W 44mi, 70km
Updated: Mon, 06/21/2021 6:51 pm EDT
Partly cloudy
Partly cloudy
 Wind from S
Wind: S 15 mph , 24 km/h, Gust: 23 mph , 37 km/h
Temperature: 81°F , 27°C
Heat Index: 85°F , 29°C
Dew Point: 70°F , 21°C
Humidity: 70%
Barometer: 29.58 inHg , 1001.7 hPa
Clouds: Partly cloudy
Visibility: 10 miles , 16 km
Cloud details: Few Clouds 4000 ft
Partly cloudy 25000 ft
2021/06/21 22:51 KLGA 212251Z 17013G20KT 10SM FEW040 SCT250 27/21 A2958 RMK AO2 SLP017 T02720206
 
KSNC - Chester, Connecticut, USA
Distance from station: NE 47mi, 76km
Updated: Mon, 06/21/2021 6:55 pm EDT
Mist
Mist
 Wind from S
Wind: S 8 mph , 13 km/h, Gust: 17 mph , 28 km/h
Temperature: 75°F , 24°C
Dew Point: 73°F , 23°C
Humidity: 94%
Barometer: 29.65 inHg , 1004.1 hPa
Summary: Mist
Visibility: 6 miles , 10 km
2021/06/21 22:55 KSNC 212255Z AUTO 18007G15KT 160V220 6SM BR 24/23 A2965 RMK AO2
KMMK - Meriden, Connecticut, USA
Distance from station: NNE 48mi, 77km
Updated: Mon, 06/21/2021 6:53 pm EDT
Few Clouds
Few Clouds
 Wind from S
Wind: S 17 mph , 28 km/h, Gust: 25 mph , 41 km/h
Temperature: 79°F , 26°C
Dew Point: 70°F , 21°C
Humidity: 74%
Barometer: 29.60 inHg , 1002.4 hPa
Clouds: Few Clouds
Visibility: 10 miles , 16 km
Cloud details: Few Clouds 1900 ft
2021/06/21 22:53 KMMK 212253Z AUTO 18015G22KT 10SM FEW019 26/21 A2960 RMK AO2 SLP022 T02560206
 
KNYC - Nyc/Central Park, New York, USA
Distance from station: W 48mi, 77km
Updated: Mon, 06/21/2021 6:51 pm EDT
Clear
Clear
 Wind from varies
Wind: varies 7 mph , 11 km/h
Temperature: 82°F , 28°C
Heat Index: 86°F , 30°C
Dew Point: 72°F , 22°C
Humidity: 70%
Barometer: 29.61 inHg , 1002.7 hPa
Clouds: Clear
Visibility: 8 miles , 13 km
2021/06/21 22:51 KNYC 212251Z AUTO VRB06KT 8SM CLR 28/22 A2961 RMK AO2 SLP018 T02780217 $